createdAt,value
2022-11-15T00:00:58.900Z,6.30
2022-11-15T00:03:27.612Z,6.40
2022-11-15T00:05:54.840Z,6.50
2022-11-15T00:08:21.885Z,6.50
2022-11-15T00:10:59.098Z,6.40
2022-11-15T00:13:26.702Z,6.50
2022-11-15T00:15:53.702Z,6.60
2022-11-15T00:18:20.533Z,6.50
2022-11-15T00:20:47.449Z,6.60
2022-11-15T00:23:14.303Z,6.50
2022-11-15T00:25:41.523Z,6.50
2022-11-15T00:28:08.415Z,6.50
2022-11-15T00:30:35.785Z,6.60
2022-11-15T00:33:04.579Z,6.60
2022-11-15T00:35:34.368Z,6.60
2022-11-15T00:38:02.277Z,6.60
2022-11-15T00:40:29.685Z,6.60
2022-11-15T00:42:56.581Z,6.70
2022-11-15T00:45:23.891Z,6.80
2022-11-15T00:47:50.967Z,6.80
2022-11-15T00:50:18.270Z,6.80
2022-11-15T00:52:45.787Z,6.80
2022-11-15T00:55:18.083Z,6.70
2022-11-15T00:57:45.579Z,6.80
2022-11-15T01:00:13.376Z,6.80
2022-11-15T01:02:40.366Z,6.80
2022-11-15T01:05:08.448Z,6.80
2022-11-15T01:07:35.448Z,6.90
2022-11-15T01:10:02.478Z,6.90
2022-11-15T01:12:29.309Z,6.90
2022-11-15T01:14:56.147Z,6.90
2022-11-15T01:17:23.194Z,6.90
2022-11-15T01:19:50.178Z,6.80
2022-11-15T01:22:17.278Z,6.70
2022-11-15T01:24:44.140Z,6.70
2022-11-15T01:27:11.332Z,6.80
2022-11-15T01:29:38.155Z,6.90
2022-11-15T01:32:05.154Z,6.90
2022-11-15T01:34:31.990Z,6.90
2022-11-15T01:36:58.782Z,6.90
2022-11-15T01:39:25.800Z,6.90
2022-11-15T01:41:52.590Z,6.90
2022-11-15T01:44:43.093Z,6.90
2022-11-15T01:47:15.120Z,6.90
2022-11-15T01:49:50.320Z,6.90
2022-11-15T01:52:20.796Z,6.90
2022-11-15T01:54:51.084Z,6.90
2022-11-15T01:57:17.943Z,6.90
2022-11-15T01:59:46.601Z,7.00
2022-11-15T02:02:14.673Z,7.00
2022-11-15T02:04:47.224Z,6.90
2022-11-15T02:07:18.680Z,6.90
2022-11-15T02:09:46.711Z,6.90
2022-11-15T02:12:17.079Z,6.90
2022-11-15T02:14:48.606Z,7.00
2022-11-15T02:17:21.347Z,7.00
2022-11-15T02:20:25.167Z,7.00
2022-11-15T02:22:57.777Z,7.00
2022-11-15T02:25:53.178Z,7.10
2022-11-15T02:28:25.504Z,7.10
2022-11-15T02:30:56.245Z,7.10
2022-11-15T02:33:23.002Z,7.00
2022-11-15T02:36:02.315Z,7.10
2022-11-15T02:38:53.424Z,7.10
2022-11-15T02:41:41.008Z,7.00
2022-11-15T02:44:36.174Z,7.00
2022-11-15T02:47:16.452Z,7.00
2022-11-15T02:50:11.000Z,6.90
2022-11-15T02:52:37.884Z,6.90
2022-11-15T02:55:05.141Z,7.00
2022-11-15T02:57:53.435Z,6.90
2022-11-15T03:00:21.909Z,6.70
2022-11-15T03:03:01.259Z,6.90
2022-11-15T03:05:43.151Z,6.80
2022-11-15T03:08:23.886Z,6.70
2022-11-15T03:11:12.879Z,6.80
2022-11-15T03:13:45.617Z,6.70
2022-11-15T03:16:31.786Z,6.70
2022-11-15T03:19:10.832Z,6.70
2022-11-15T03:21:40.547Z,6.70
2022-11-15T03:24:09.349Z,6.70
2022-11-15T03:26:40.343Z,6.60
2022-11-15T03:29:23.887Z,6.60
2022-11-15T03:31:59.812Z,6.60
2022-11-15T03:34:34.978Z,6.50
2022-11-15T03:37:02.714Z,6.50
2022-11-15T03:39:30.526Z,6.60
2022-11-15T03:42:22.629Z,6.60
2022-11-15T03:44:57.829Z,6.50
2022-11-15T03:47:27.477Z,6.50
2022-11-15T03:50:00.304Z,6.40
2022-11-15T03:52:27.253Z,6.40
2022-11-15T03:54:56.699Z,6.40
2022-11-15T03:57:23.875Z,6.50
2022-11-15T03:59:50.754Z,6.40
2022-11-15T04:02:17.555Z,6.40
2022-11-15T04:04:44.401Z,6.30
2022-11-15T04:07:11.314Z,6.30
2022-11-15T04:09:56.904Z,6.40
2022-11-15T04:12:32.719Z,6.30
2022-11-15T04:15:14.637Z,6.20
2022-11-15T04:17:56.071Z,6.20
2022-11-15T04:20:46.660Z,6.30
2022-11-15T04:23:37.947Z,6.40
2022-11-15T04:26:11.809Z,6.30
2022-11-15T04:28:57.692Z,6.30
2022-11-15T04:31:24.626Z,6.20
2022-11-15T04:33:51.542Z,6.20
2022-11-15T04:36:37.251Z,6.10
2022-11-15T04:39:04.271Z,6.20
2022-11-15T04:41:31.518Z,6.10
2022-11-15T04:43:58.442Z,6.10
2022-11-15T04:46:26.105Z,6.10
2022-11-15T04:48:58.320Z,6.10
2022-11-15T04:51:26.170Z,6.10
2022-11-15T04:53:53.079Z,6.10
2022-11-15T04:56:20.234Z,6.20
2022-11-15T04:58:50.079Z,6.20
2022-11-15T05:01:17.560Z,6.10
2022-11-15T05:04:04.064Z,6.10
2022-11-15T05:06:31.143Z,6.00
2022-11-15T05:08:58.145Z,6.10
2022-11-15T05:11:25.342Z,6.10
2022-11-15T05:13:52.268Z,6.10
2022-11-15T05:16:19.127Z,6.10
2022-11-15T05:18:46.052Z,6.10
2022-11-15T05:21:15.934Z,6.10
2022-11-15T05:23:43.004Z,6.00
2022-11-15T05:26:10.808Z,5.90
2022-11-15T05:28:38.217Z,6.00
2022-11-15T05:31:08.278Z,6.00
2022-11-15T05:33:37.745Z,6.00
2022-11-15T05:36:10.788Z,6.00
2022-11-15T05:38:38.252Z,6.00
2022-11-15T05:41:06.049Z,6.10
2022-11-15T05:43:36.571Z,6.20
2022-11-15T05:46:05.116Z,6.20
2022-11-15T05:48:33.393Z,6.20
2022-11-15T05:51:00.915Z,6.20
2022-11-15T05:53:28.243Z,6.40
2022-11-15T05:55:55.174Z,6.40
2022-11-15T05:58:22.082Z,6.40
2022-11-15T06:00:49.353Z,6.50
2022-11-15T06:03:16.229Z,6.40
2022-11-15T06:05:43.002Z,6.50
2022-11-15T06:08:09.907Z,6.60
2022-11-15T06:10:36.718Z,6.50
2022-11-15T06:13:05.463Z,6.60
2022-11-15T06:15:34.710Z,6.60
2022-11-15T06:18:01.916Z,6.70
2022-11-15T06:20:29.955Z,6.70
2022-11-15T06:23:01.232Z,6.60
2022-11-15T06:25:29.215Z,6.80
2022-11-15T06:27:57.604Z,6.70
2022-11-15T06:30:25.626Z,6.60
2022-11-15T06:32:58.965Z,6.60
2022-11-15T06:35:25.764Z,6.60
2022-11-15T06:37:52.643Z,6.60
2022-11-15T06:40:19.510Z,6.60
2022-11-15T06:42:46.309Z,6.70
2022-11-15T06:45:13.145Z,6.70
2022-11-15T06:47:47.640Z,6.80
2022-11-15T06:50:14.614Z,6.80
2022-11-15T06:52:42.573Z,6.80
2022-11-15T06:55:09.847Z,6.80
2022-11-15T06:57:37.730Z,6.80
2022-11-15T07:00:07.584Z,6.80
2022-11-15T07:02:34.387Z,6.90
2022-11-15T07:05:01.292Z,6.90
2022-11-15T07:07:28.207Z,7.00
2022-11-15T07:09:55.080Z,7.00
2022-11-15T07:12:21.908Z,7.10
2022-11-15T07:14:48.680Z,7.00
2022-11-15T07:17:15.658Z,7.30
2022-11-15T07:19:42.476Z,7.10
2022-11-15T07:22:09.288Z,7.10
2022-11-15T07:24:36.089Z,7.10
2022-11-15T07:27:03.137Z,7.30
2022-11-15T07:29:30.059Z,7.30
2022-11-15T07:31:57.027Z,7.30
2022-11-15T07:34:24.850Z,7.30
2022-11-15T07:36:51.667Z,7.20
2022-11-15T07:39:18.480Z,7.30
2022-11-15T07:41:45.663Z,7.30
2022-11-15T07:44:12.494Z,7.30
2022-11-15T07:46:39.291Z,7.30
2022-11-15T07:49:06.192Z,7.40
2022-11-15T07:51:33.038Z,7.50
2022-11-15T07:54:00.026Z,7.50
2022-11-15T07:56:26.859Z,7.60
2022-11-15T07:58:53.978Z,7.60
2022-11-15T08:01:21.063Z,7.60
2022-11-15T08:03:48.274Z,7.70
2022-11-15T08:06:15.084Z,7.60
2022-11-15T08:08:41.839Z,7.70
2022-11-15T08:11:08.716Z,7.80
2022-11-15T08:13:35.734Z,7.80
2022-11-15T08:16:03.909Z,7.80
2022-11-15T08:18:30.770Z,7.90
2022-11-15T08:21:02.273Z,7.90
2022-11-15T08:23:29.460Z,7.90
2022-11-15T08:26:05.034Z,7.90
2022-11-15T08:28:32.985Z,7.90
2022-11-15T08:30:59.763Z,8.00
2022-11-15T08:33:26.771Z,8.00
2022-11-15T08:35:56.860Z,7.90
2022-11-15T08:38:23.710Z,7.90
2022-11-15T08:41:00.231Z,8.00
2022-11-15T08:43:27.010Z,8.00
2022-11-15T08:45:59.853Z,8.10
2022-11-15T08:48:27.055Z,8.10
2022-11-15T08:50:57.391Z,8.10
2022-11-15T08:53:24.426Z,8.20
2022-11-15T08:55:51.330Z,8.20
2022-11-15T08:58:18.154Z,8.30
2022-11-15T09:00:44.957Z,8.30
2022-11-15T09:03:11.775Z,8.30
2022-11-15T09:05:38.896Z,8.30
2022-11-15T09:08:19.028Z,8.30
2022-11-15T09:10:52.919Z,8.40
2022-11-15T09:13:19.700Z,8.30
2022-11-15T09:15:46.563Z,8.40
2022-11-15T09:18:13.542Z,8.40
2022-11-15T09:20:40.802Z,8.50
2022-11-15T09:23:07.706Z,8.50
2022-11-15T09:25:34.564Z,8.50
2022-11-15T09:28:01.388Z,8.60
2022-11-15T09:30:28.302Z,8.50
2022-11-15T09:32:55.126Z,8.60
2022-11-15T09:35:21.892Z,8.60
2022-11-15T09:37:53.580Z,8.70
2022-11-15T09:40:23.675Z,8.70
2022-11-15T09:43:20.415Z,8.70
2022-11-15T09:46:03.065Z,8.70
2022-11-15T09:49:09.360Z,8.70
2022-11-15T09:51:48.217Z,8.70
2022-11-15T09:57:19.819Z,8.80
2022-11-15T10:00:23.698Z,8.80
2022-11-15T10:03:12.287Z,8.80
2022-11-15T10:05:47.490Z,8.80
2022-11-15T10:08:55.643Z,8.90
2022-11-15T10:11:42.238Z,8.90
2022-11-15T10:14:24.573Z,8.90
2022-11-15T10:17:00.292Z,8.90
2022-11-15T10:19:41.583Z,9.00
2022-11-15T10:22:29.476Z,9.10
2022-11-15T10:25:18.898Z,9.10
2022-11-15T10:28:05.831Z,9.10
2022-11-15T10:30:39.299Z,9.20
2022-11-15T10:33:30.381Z,9.20
2022-11-15T10:36:09.444Z,9.20
2022-11-15T10:38:51.665Z,9.20
2022-11-15T10:41:22.721Z,9.30
2022-11-15T10:44:07.543Z,9.20
2022-11-15T10:46:51.923Z,9.30
2022-11-15T10:49:21.021Z,9.20
2022-11-15T10:51:57.829Z,9.20
2022-11-15T10:54:44.996Z,9.30
2022-11-15T10:57:17.111Z,9.20
2022-11-15T10:59:49.147Z,9.20
2022-11-15T11:02:38.757Z,9.20
2022-11-15T11:05:26.357Z,9.30
2022-11-15T11:08:03.196Z,9.30
2022-11-15T11:10:51.513Z,9.30
2022-11-15T11:13:28.364Z,9.30
2022-11-15T11:16:15.980Z,9.30
2022-11-15T11:19:02.952Z,9.30
2022-11-15T11:21:56.137Z,9.20
2022-11-15T11:24:32.038Z,9.30
2022-11-15T11:27:22.751Z,9.30
2022-11-15T11:30:08.826Z,9.30
2022-11-15T11:32:55.178Z,9.40
2022-11-15T11:35:44.311Z,9.40
2022-11-15T11:38:34.278Z,9.40
2022-11-15T11:41:18.157Z,9.40
2022-11-15T11:44:20.426Z,9.40
2022-11-15T11:47:02.835Z,9.50
2022-11-15T11:49:41.903Z,9.40
2022-11-15T11:52:08.665Z,9.40
2022-11-15T11:55:00.244Z,9.50
2022-11-15T11:57:37.409Z,9.60
2022-11-15T12:00:28.654Z,9.60
2022-11-15T12:03:21.097Z,9.60
2022-11-15T12:05:50.664Z,9.50
2022-11-15T12:08:50.026Z,9.60
2022-11-15T12:11:19.960Z,9.60
2022-11-15T12:13:49.973Z,9.70
2022-11-15T12:16:43.236Z,9.70
2022-11-15T12:19:10.096Z,9.80
2022-11-15T12:22:00.582Z,9.80
2022-11-15T12:24:56.901Z,9.70
2022-11-15T12:27:37.865Z,9.80
2022-11-15T12:30:30.442Z,9.80
2022-11-15T12:33:00.599Z,9.90
2022-11-15T12:35:39.928Z,9.80
2022-11-15T12:38:11.750Z,9.90
2022-11-15T12:41:00.009Z,9.90
2022-11-15T12:43:43.304Z,9.80
2022-11-15T12:46:42.323Z,9.90
2022-11-15T12:49:24.208Z,9.90
2022-11-15T12:51:51.894Z,9.90
2022-11-15T12:54:24.766Z,9.90
2022-11-15T12:57:03.823Z,10.00
2022-11-15T13:00:02.447Z,10.00
2022-11-15T13:02:38.991Z,10.00
2022-11-15T13:05:20.815Z,10.10
2022-11-15T13:07:47.565Z,10.10
2022-11-15T13:10:14.410Z,10.10
2022-11-15T13:12:47.552Z,10.10
2022-11-15T13:15:14.431Z,10.10
2022-11-15T13:17:49.525Z,10.10
2022-11-15T13:20:16.371Z,10.20
2022-11-15T13:22:55.471Z,10.20
2022-11-15T13:25:40.436Z,10.20
2022-11-15T13:28:20.951Z,10.20
2022-11-15T13:30:47.726Z,10.20
2022-11-15T13:33:34.553Z,10.20
2022-11-15T13:36:07.321Z,10.30
2022-11-15T13:38:36.949Z,10.30
2022-11-15T13:41:21.258Z,10.30
2022-11-15T13:43:49.714Z,10.30
2022-11-15T13:46:28.248Z,10.30
2022-11-15T13:48:58.922Z,10.30
2022-11-15T13:51:48.209Z,10.20
2022-11-15T13:54:33.753Z,10.20
2022-11-15T13:57:15.744Z,10.20
2022-11-15T13:59:55.117Z,10.20
2022-11-15T14:02:48.570Z,10.20
2022-11-15T14:05:17.229Z,10.20
2022-11-15T14:08:15.803Z,10.30
2022-11-15T14:10:42.663Z,10.30
2022-11-15T14:13:30.161Z,10.30
2022-11-15T14:16:15.174Z,10.50
2022-11-15T14:18:46.570Z,10.50
2022-11-15T14:21:13.780Z,10.40
2022-11-15T14:23:40.688Z,10.40
2022-11-15T14:26:27.128Z,10.40
2022-11-15T14:28:53.935Z,10.50
2022-11-15T14:31:24.704Z,10.50
2022-11-15T14:33:51.622Z,10.60
2022-11-15T14:36:21.152Z,10.60
2022-11-15T14:38:48.650Z,10.70
2022-11-15T14:41:22.945Z,10.70
2022-11-15T14:43:51.033Z,10.70
2022-11-15T14:46:18.112Z,10.70
2022-11-15T14:48:44.926Z,10.70
2022-11-15T14:51:17.012Z,10.70
2022-11-15T14:53:45.728Z,10.70
2022-11-15T14:56:13.065Z,10.60
2022-11-15T14:58:40.023Z,10.60
2022-11-15T15:01:21.231Z,10.60
2022-11-15T15:03:48.216Z,10.60
2022-11-15T15:06:17.975Z,10.50
2022-11-15T15:08:46.085Z,10.50
2022-11-15T15:11:24.194Z,10.50
2022-11-15T15:13:51.510Z,10.60
2022-11-15T15:16:18.318Z,10.60
2022-11-15T15:18:45.218Z,10.50
2022-11-15T15:21:33.555Z,10.40
2022-11-15T15:24:03.167Z,10.30
2022-11-15T15:26:30.070Z,10.20
2022-11-15T15:28:57.065Z,10.10
2022-11-15T15:31:23.889Z,10.10
2022-11-15T15:33:50.685Z,10.00
2022-11-15T15:36:19.610Z,9.90
2022-11-15T15:38:47.701Z,9.90
2022-11-15T15:41:18.273Z,10.00
2022-11-15T15:43:45.642Z,9.90
2022-11-15T15:46:15.837Z,9.90
2022-11-15T15:48:42.866Z,9.90
2022-11-15T15:51:18.467Z,9.90
2022-11-15T15:53:46.770Z,10.00
2022-11-15T15:56:13.602Z,10.00
2022-11-15T15:58:40.421Z,9.90
2022-11-15T16:01:07.335Z,10.00
2022-11-15T16:03:34.241Z,9.90
2022-11-15T16:06:02.036Z,9.90
2022-11-15T16:08:42.555Z,9.90
2022-11-15T16:11:17.509Z,9.80
2022-11-15T16:13:44.403Z,9.70
2022-11-15T16:16:14.075Z,9.70
2022-11-15T16:18:40.966Z,9.60
2022-11-15T16:21:09.373Z,9.60
2022-11-15T16:23:36.221Z,9.60
2022-11-15T16:26:04.354Z,9.70
2022-11-15T16:28:33.744Z,9.60
2022-11-15T16:31:06.055Z,9.70
2022-11-15T16:33:33.370Z,9.70
2022-11-15T16:36:00.629Z,9.60
2022-11-15T16:38:27.616Z,9.60
2022-11-15T16:40:54.394Z,9.60
2022-11-15T16:43:21.269Z,9.60
2022-11-15T16:45:49.364Z,9.70
2022-11-15T16:48:25.552Z,9.70
2022-11-15T16:50:56.699Z,9.60
2022-11-15T16:53:23.939Z,9.70
2022-11-15T16:55:50.752Z,9.70
2022-11-15T16:58:17.602Z,9.60
2022-11-15T17:00:44.637Z,9.50
2022-11-15T17:03:11.949Z,9.50
2022-11-15T17:05:38.822Z,9.50
2022-11-15T17:08:06.465Z,9.50
2022-11-15T17:10:33.683Z,9.60
2022-11-15T17:13:00.530Z,9.70
2022-11-15T17:15:27.659Z,9.70
2022-11-15T17:17:55.098Z,9.80
2022-11-15T17:20:24.630Z,9.70
2022-11-15T17:22:52.974Z,9.60
2022-11-15T17:25:20.121Z,9.50
2022-11-15T17:27:46.939Z,9.50
2022-11-15T17:30:18.729Z,9.50
2022-11-15T17:32:47.068Z,9.50
2022-11-15T17:35:15.830Z,9.50
2022-11-15T17:37:43.366Z,9.50
2022-11-15T17:40:10.807Z,9.50
2022-11-15T17:42:40.195Z,9.50
2022-11-15T17:45:10.134Z,9.60
2022-11-15T17:47:37.413Z,9.60
2022-11-15T17:50:04.684Z,9.60
2022-11-15T17:52:31.566Z,9.70
2022-11-15T17:54:58.461Z,9.80
2022-11-15T17:57:25.443Z,9.70
2022-11-15T17:59:52.420Z,9.50
2022-11-15T18:02:19.527Z,9.60
2022-11-15T18:04:46.397Z,9.60
2022-11-15T18:07:14.260Z,9.70
2022-11-15T18:09:43.755Z,9.70
2022-11-15T18:12:11.944Z,9.80
2022-11-15T18:14:39.091Z,9.80
2022-11-15T18:17:06.118Z,9.80
2022-11-15T18:19:33.600Z,9.80
2022-11-15T18:22:01.574Z,9.80
2022-11-15T18:24:36.774Z,9.90
2022-11-15T18:27:05.536Z,9.90
2022-11-15T18:29:34.497Z,9.90
2022-11-15T18:32:04.971Z,9.90
2022-11-15T18:34:33.684Z,9.90
2022-11-15T18:37:02.800Z,9.90
2022-11-15T18:39:29.942Z,9.90
2022-11-15T18:41:56.942Z,9.90
2022-11-15T18:44:24.073Z,9.90
2022-11-15T18:46:51.076Z,9.90
2022-11-15T18:49:19.694Z,10.00
2022-11-15T18:51:47.014Z,10.00
2022-11-15T18:54:15.568Z,10.20
2022-11-15T18:56:46.814Z,10.00
2022-11-15T18:59:14.613Z,10.10
2022-11-15T19:01:46.477Z,10.00
2022-11-15T19:04:17.640Z,10.00
2022-11-15T19:06:46.902Z,10.00
2022-11-15T19:09:16.412Z,10.00
2022-11-15T19:11:45.373Z,9.90
2022-11-15T19:14:14.766Z,9.90
2022-11-15T19:16:50.099Z,10.00
2022-11-15T19:19:19.633Z,10.00
2022-11-15T19:21:46.610Z,9.90
2022-11-15T19:24:14.359Z,9.90
2022-11-15T19:26:41.713Z,10.00
2022-11-15T19:29:14.045Z,9.90
2022-11-15T19:31:41.592Z,9.90
2022-11-15T19:34:08.618Z,9.90
2022-11-15T19:36:40.880Z,9.90
2022-11-15T19:39:11.164Z,9.90
2022-11-15T19:41:39.743Z,9.90
2022-11-15T19:44:08.971Z,9.90
2022-11-15T19:46:36.158Z,9.80
2022-11-15T19:49:03.034Z,9.70
2022-11-15T19:51:30.903Z,9.70
2022-11-15T19:54:06.534Z,9.80
2022-11-15T19:56:34.697Z,9.80
2022-11-15T19:59:03.961Z,9.70
2022-11-15T20:01:33.764Z,9.90
2022-11-15T20:04:00.943Z,9.80
2022-11-15T20:06:34.363Z,9.70
2022-11-15T20:09:01.273Z,9.70
2022-11-15T20:11:28.521Z,9.70
2022-11-15T20:14:00.426Z,9.70
2022-11-15T20:16:27.335Z,9.70
2022-11-15T20:18:54.237Z,9.70
2022-11-15T20:21:21.916Z,9.70
2022-11-15T20:23:50.814Z,9.70
2022-11-15T20:26:19.128Z,9.80
2022-11-15T20:28:46.118Z,9.70
2022-11-15T20:31:13.009Z,9.70
2022-11-15T20:33:40.238Z,9.70
2022-11-15T20:36:10.790Z,9.70
2022-11-15T20:38:37.666Z,9.60
2022-11-15T20:41:07.653Z,9.50
2022-11-15T20:43:34.482Z,9.60
2022-11-15T20:46:01.412Z,9.70
2022-11-15T20:48:28.542Z,9.50
2022-11-15T20:51:28.046Z,9.60
2022-11-15T20:53:54.852Z,9.60
2022-11-15T20:56:22.185Z,9.50
2022-11-15T20:58:50.795Z,9.60
2022-11-15T21:01:23.381Z,9.50
2022-11-15T21:03:57.428Z,9.50
2022-11-15T21:06:26.528Z,9.50
2022-11-15T21:09:13.071Z,9.50
2022-11-15T21:11:59.164Z,9.40
2022-11-15T21:14:26.074Z,9.40
2022-11-15T21:16:53.078Z,9.40
2022-11-15T21:19:25.405Z,9.30
2022-11-15T21:21:54.996Z,9.40
2022-11-15T21:24:22.217Z,9.40
2022-11-15T21:26:49.027Z,9.40
2022-11-15T21:29:17.229Z,9.40
2022-11-15T21:31:48.541Z,9.40
2022-11-15T21:34:16.406Z,9.30
2022-11-15T21:36:43.608Z,9.30
2022-11-15T21:39:10.487Z,9.30
2022-11-15T21:41:37.373Z,9.40
2022-11-15T21:44:05.021Z,9.40
2022-11-15T21:46:32.318Z,9.30
2022-11-15T21:48:59.195Z,9.30
2022-11-15T21:51:26.095Z,9.30
2022-11-15T21:53:56.396Z,9.20
2022-11-15T21:56:23.866Z,9.10
2022-11-15T21:58:50.689Z,9.20
2022-11-15T22:01:36.199Z,9.10
2022-11-15T22:04:03.112Z,9.10
2022-11-15T22:06:29.876Z,9.10
2022-11-15T22:08:56.700Z,9.10
2022-11-15T22:11:23.494Z,9.10
2022-11-15T22:13:50.391Z,9.10
2022-11-15T22:16:17.308Z,9.00
2022-11-15T22:18:44.279Z,9.00
2022-11-15T22:21:13.450Z,9.00
2022-11-15T22:23:41.143Z,9.10
2022-11-15T22:26:11.020Z,9.10
2022-11-15T22:28:37.866Z,9.10
2022-11-15T22:31:06.847Z,9.10
2022-11-15T22:33:35.082Z,9.10
2022-11-15T22:36:02.975Z,9.10
2022-11-15T22:38:30.340Z,9.10
2022-11-15T22:40:57.767Z,9.10
2022-11-15T22:43:26.004Z,9.00
2022-11-15T22:45:58.574Z,9.10
2022-11-15T22:48:28.424Z,9.00
2022-11-15T22:50:55.562Z,9.00
2022-11-15T22:53:22.677Z,9.00
2022-11-15T22:55:51.830Z,9.00
2022-11-15T22:58:19.418Z,8.90
2022-11-15T23:00:52.542Z,8.90
2022-11-15T23:03:20.482Z,8.90
2022-11-15T23:05:48.055Z,8.90
2022-11-15T23:08:16.229Z,8.90
2022-11-15T23:11:01.905Z,8.90
2022-11-15T23:13:31.618Z,8.90
2022-11-15T23:16:23.286Z,9.00
2022-11-15T23:18:55.986Z,8.90
2022-11-15T23:21:50.587Z,8.90
2022-11-15T23:24:18.189Z,8.90
2022-11-15T23:26:46.710Z,8.90
2022-11-15T23:29:15.776Z,8.90
2022-11-15T23:32:02.649Z,8.90
2022-11-15T23:34:31.692Z,8.90
2022-11-15T23:36:59.526Z,8.90
2022-11-15T23:39:26.452Z,8.90
2022-11-15T23:41:53.285Z,8.90
2022-11-15T23:44:20.128Z,8.80
2022-11-15T23:46:47.041Z,8.90
2022-11-15T23:49:13.940Z,8.90
2022-11-15T23:51:41.088Z,8.80
2022-11-15T23:54:08.450Z,8.80
2022-11-15T23:56:35.382Z,8.90
2022-11-15T23:59:02.417Z,8.80
